Time;durP1;ratioP1;P1;durP2;ratioP2;P2;SDS_P1;SDS_P2;PMS_P1;PMS_P2;Temp;Humidity;BMP_temperature;BMP_pressure;BME280_temperature;BME280_humidity;BME280_pressure;Samples;Min_cycle;Max_cycle;Signal;HPM_P1;HPM_P2
2021/10/16 06:03:32;;;;;;;3.13;2.90;;;3.90;99.90;;;;;;6137327;23;20375;-80
2021/10/16 06:06:17;;;;;;;3.22;2.92;;;3.90;99.90;;;;;;6173289;23;20373;-80
2021/10/16 06:09:03;;;;;;;2.60;2.40;;;3.90;99.90;;;;;;6161186;23;20384;-82
2021/10/16 06:11:48;;;;;;;2.50;2.30;;;4.00;99.90;;;;;;6167652;23;20396;-81
2021/10/16 06:14:33;;;;;;;3.17;2.87;;;4.10;99.90;;;;;;6173705;23;20366;-83
2021/10/16 06:17:47;;;;;;;2.65;2.45;;;4.20;99.90;;;;;;6159647;23;20464;-82
2021/10/16 06:20:33;;;;;;;2.72;2.28;;;4.20;99.90;;;;;;6188498;23;20426;-81
2021/10/16 06:24:06;;;;;;;2.90;2.35;;;4.30;99.90;;;;;;6179272;23;20368;-82
2021/10/16 06:28:13;;;;;;;3.00;2.70;;;4.30;99.90;;;;;;6203749;23;20878;-82
2021/10/16 08:53:53;;;;;;;3.22;2.20;;;8.90;99.90;;;;;;6169434;23;20389;-81
2021/10/16 09:06:38;;;;;;;2.67;2.47;;;9.30;99.90;;;;;;6154176;23;20369;-81
2021/10/16 09:09:27;;;;;;;3.50;2.53;;;9.40;99.90;;;;;;6158831;23;20372;-81
2021/10/16 09:12:12;;;;;;;6.10;2.70;;;9.50;99.90;;;;;;6202548;23;20400;-82
2021/10/16 09:14:58;;;;;;;3.38;2.72;;;9.70;99.90;;;;;;6205143;23;20396;-82
2021/10/16 09:18:04;;;;;;;3.00;2.45;;;9.80;99.90;;;;;;6181636;23;20373;-81
2021/10/16 09:20:48;;;;;;;1.90;1.80;;;10.00;99.90;;;;;;6203678;23;20420;-82
2021/10/16 09:23:33;;;;;;;2.45;1.92;;;10.00;99.90;;;;;;6184170;23;20380;-81
2021/10/16 09:26:17;;;;;;;3.92;2.65;;;10.00;99.90;;;;;;6203583;23;20381;-80
2021/10/16 09:29:15;;;;;;;2.70;2.15;;;10.00;99.90;;;;;;6224077;23;20404;-81
2021/10/16 09:32:01;;;;;;;3.05;2.50;;;10.10;99.90;;;;;;6206386;23;20344;-81
2021/10/16 09:35:12;;;;;;;5.63;3.25;;;10.10;99.90;;;;;;6205496;23;20449;-81
2021/10/16 09:37:57;;;;;;;3.00;2.50;;;10.20;99.90;;;;;;6205529;23;20445;-81
2021/10/16 09:40:41;;;;;;;5.10;2.63;;;10.30;99.90;;;;;;6161897;23;20393;-81
2021/10/16 09:43:27;;;;;;;3.20;2.35;;;10.40;99.90;;;;;;6216499;22;20380;-80
2021/10/16 09:46:17;;;;;;;2.17;1.90;;;10.60;99.90;;;;;;6148583;23;20397;-81
2021/10/16 09:49:35;;;;;;;7.07;2.40;;;10.80;99.90;;;;;;6201112;23;20364;-81
2021/10/16 10:03:58;;;;;;;5.10;2.60;;;11.40;99.90;;;;;;6208499;23;20381;-88
2021/10/16 10:06:43;;;;;;;2.67;2.33;;;11.30;99.90;;;;;;6134746;23;20371;-86
2021/10/16 10:09:29;;;;;;;4.40;2.00;;;11.40;99.90;;;;;;6175326;23;20370;-89
2021/10/16 10:12:15;;;;;;;3.63;2.13;;;11.50;99.90;;;;;;6178043;23;20378;-90
2021/10/16 10:26:25;;;;;;;3.80;2.70;;;11.60;99.90;;;;;;5469615;22;15724171;-88
2021/10/16 10:32:15;;;;;;;2.38;1.83;;;11.80;99.90;;;;;;6165631;23;20356;-88
2021/10/16 10:38:03;;;;;;;3.45;2.72;;;12.10;99.90;;;;;;6176110;23;20634;-86
2021/10/16 10:40:48;;;;;;;5.22;2.47;;;12.20;99.90;;;;;;6161353;23;20372;-81
2021/10/16 10:53:02;;;;;;;4.72;2.17;;;13.20;99.90;;;;;;6169588;23;21146;-89
2021/10/16 10:55:51;;;;;;;3.30;2.13;;;12.80;99.90;;;;;;6096063;23;20438;-87
2021/10/16 10:58:54;;;;;;;3.83;1.77;;;12.90;99.90;;;;;;6094638;23;20401;-87
2021/10/16 11:01:41;;;;;;;5.65;2.38;;;12.60;99.90;;;;;;6114775;23;20366;-90
2021/10/16 11:04:48;;;;;;;5.78;2.30;;;12.60;99.90;;;;;;6046660;23;20369;-87
2021/10/16 11:07:44;;;;;;;4.05;2.45;;;12.50;99.90;;;;;;6109835;23;20379;-86
2021/10/16 11:10:28;;;;;;;2.63;2.08;;;12.40;99.90;;;;;;6074410;23;20674;-87
2021/10/16 11:13:13;;;;;;;2.17;1.60;;;12.50;99.90;;;;;;6074996;23;20387;-88
2021/10/16 11:15:59;;;;;;;2.00;1.52;;;12.70;99.90;;;;;;6115982;23;20433;-89
2021/10/16 11:18:43;;;;;;;2.95;2.15;;;12.80;99.90;;;;;;6074047;23;20435;-89
2021/10/16 11:26:27;;;;;;;1.70;1.40;;;12.60;99.90;;;;;;6080670;23;20415;-86
2021/10/16 11:29:12;;;;;;;2.60;1.50;;;12.70;99.90;;;;;;6162419;23;20402;-88
2021/10/16 11:32:13;;;;;;;2.30;1.23;;;12.70;99.90;;;;;;6146502;23;20368;-88
2021/10/16 11:35:07;;;;;;;2.42;1.58;;;12.70;99.90;;;;;;6143362;23;20412;-89
2021/10/16 11:37:52;;;;;;;2.53;1.60;;;12.80;99.90;;;;;;6105869;23;20359;-89
2021/10/16 11:40:38;;;;;;;1.55;1.38;;;12.80;99.90;;;;;;6106614;23;20448;-88
2021/10/16 11:43:27;;;;;;;1.70;1.33;;;13.00;99.90;;;;;;6071907;23;20368;-89
2021/10/16 11:49:15;;;;;;;1.50;1.40;;;13.60;99.90;;;;;;6112702;23;20505;-81
2021/10/16 11:52:41;;;;;;;7.05;2.08;;;13.70;99.90;;;;;;6078833;23;20375;-81
2021/10/16 11:56:04;;;;;;;1.52;1.35;;;13.80;99.90;;;;;;6086596;23;20378;-81
2021/10/16 12:02:35;;;;;;;3.08;1.77;;;14.40;99.90;;;;;;6064235;23;20418;-82
2021/10/16 12:05:56;;;;;;;2.42;1.27;;;14.80;99.90;;;;;;6054250;23;20377;-82
2021/10/16 14:11:03;;;;;;;1.30;1.20;;;12.80;99.90;;;;;;6183233;23;20432;-88
2021/10/16 14:13:48;;;;;;;2.23;1.47;;;12.70;99.90;;;;;;6141354;23;20699;-88
2021/10/16 14:16:32;;;;;;;2.58;1.30;;;12.70;99.90;;;;;;6141528;23;20344;-89
2021/10/16 14:19:17;;;;;;;2.28;1.30;;;12.60;99.90;;;;;;6121411;23;20379;-88
2021/10/16 14:22:02;;;;;;;1.20;1.10;;;12.40;99.90;;;;;;6129384;23;20386;-88
2021/10/16 14:24:46;;;;;;;1.70;1.60;;;12.30;99.90;;;;;;6154392;23;20366;-87
2021/10/16 14:27:31;;;;;;;1.25;1.15;;;12.20;99.90;;;;;;6140356;23;20370;-88
2021/10/16 14:30:16;;;;;;;2.53;1.80;;;12.30;99.90;;;;;;6132260;23;20378;-87
2021/10/16 14:33:01;;;;;;;1.52;1.30;;;12.30;99.90;;;;;;6124216;23;20462;-87
2021/10/16 14:35:46;;;;;;;1.83;1.60;;;12.20;99.90;;;;;;6133174;23;20394;-87
2021/10/16 14:38:30;;;;;;;1.43;1.33;;;12.20;99.90;;;;;;6132929;23;20374;-85
2021/10/16 14:41:15;;;;;;;1.70;1.30;;;12.20;99.90;;;;;;6175297;23;20362;-89
2021/10/16 14:43:59;;;;;;;1.40;1.35;;;12.10;99.90;;;;;;6162797;23;20375;-89
2021/10/16 14:46:43;;;;;;;1.90;1.45;;;12.20;99.90;;;;;;6141437;23;20655;-87
2021/10/16 14:49:28;;;;;;;2.17;1.60;;;12.20;99.90;;;;;;6163095;23;20372;-87
2021/10/16 14:52:12;;;;;;;7.15;1.80;;;12.20;99.90;;;;;;6142014;23;20377;-88
2021/10/16 14:54:57;;;;;;;1.70;1.60;;;12.20;99.90;;;;;;6141017;23;20682;-88
2021/10/16 14:57:41;;;;;;;2.28;1.95;;;12.30;99.90;;;;;;6141134;23;20376;-87
2021/10/16 15:00:27;;;;;;;2.10;1.90;;;12.40;99.90;;;;;;6141216;23;20357;-86
2021/10/16 15:03:11;;;;;;;2.20;1.60;;;12.50;99.90;;;;;;6143525;23;20361;-88
2021/10/16 15:05:57;;;;;;;4.45;2.35;;;12.50;99.90;;;;;;6144439;23;20377;-87
2021/10/16 15:08:41;;;;;;;2.30;2.10;;;12.60;99.90;;;;;;6144369;23;20400;-87
2021/10/16 15:11:26;;;;;;;1.60;1.50;;;12.50;99.90;;;;;;6185517;23;20388;-88
2021/10/16 15:14:10;;;;;;;2.78;2.38;;;12.40;99.90;;;;;;6185831;23;20380;-90
2021/10/16 15:16:55;;;;;;;1.75;1.65;;;12.40;99.90;;;;;;6164921;23;20353;-89
2021/10/16 15:19:40;;;;;;;2.40;1.60;;;12.40;99.90;;;;;;6163676;23;20361;-90
2021/10/16 15:22:26;;;;;;;1.10;1.10;;;12.40;99.90;;;;;;6164309;23;20360;-87
2021/10/16 15:25:10;;;;;;;2.10;1.50;;;12.30;99.90;;;;;;6184465;23;20368;-88
2021/10/16 15:27:54;;;;;;;1.57;1.47;;;12.40;99.90;;;;;;6114802;23;20378;-90
2021/10/16 15:30:39;;;;;;;1.50;1.30;;;12.40;99.90;;;;;;6184831;23;20352;-90
2021/10/16 15:33:26;;;;;;;1.50;1.30;;;12.30;99.90;;;;;;6162864;23;20372;-89
2021/10/16 15:36:10;;;;;;;2.72;1.58;;;12.30;99.90;;;;;;6185431;23;20375;-90
2021/10/16 15:38:55;;;;;;;2.40;1.25;;;12.30;99.90;;;;;;6183514;23;20380;-87
2021/10/16 15:41:39;;;;;;;2.17;1.75;;;12.00;99.90;;;;;;6094022;23;20406;-90
2021/10/16 15:44:23;;;;;;;1.80;1.60;;;12.10;99.90;;;;;;6151014;23;20378;-90
2021/10/16 15:47:08;;;;;;;2.17;1.98;;;12.00;99.90;;;;;;6134261;23;20377;-90
2021/10/16 15:49:52;;;;;;;4.00;2.53;;;12.00;99.90;;;;;;6154861;23;20403;-89
2021/10/16 15:52:38;;;;;;;1.80;1.70;;;12.00;99.90;;;;;;6134389;23;20350;-88
2021/10/16 15:55:22;;;;;;;1.80;1.70;;;12.00;99.90;;;;;;6155411;23;20374;-89
2021/10/16 15:58:07;;;;;;;2.63;2.30;;;12.00;99.90;;;;;;6142122;23;20462;-86
2021/10/16 16:09:42;;;;;;;1.77;1.67;;;11.80;99.90;;;;;;6164003;23;20379;-88
2021/10/16 16:12:27;;;;;;;3.25;1.90;;;11.70;99.90;;;;;;6156064;23;20415;-88
2021/10/16 16:15:11;;;;;;;1.77;1.67;;;11.70;99.90;;;;;;6129790;23;20388;-88
2021/10/16 16:17:56;;;;;;;2.00;1.90;;;11.70;99.90;;;;;;6084840;23;20365;-89
2021/10/16 16:20:40;;;;;;;2.00;1.90;;;11.80;99.90;;;;;;6083581;23;20416;-88
2021/10/16 16:23:24;;;;;;;3.05;2.78;;;11.80;99.90;;;;;;6104068;23;20367;-87
2021/10/16 16:26:09;;;;;;;5.65;3.70;;;11.80;99.90;;;;;;6084492;23;20368;-89
2021/10/16 16:28:54;;;;;;;4.05;3.67;;;11.70;99.90;;;;;;6065520;23;20411;-88
2021/10/16 16:31:38;;;;;;;3.45;3.15;;;11.60;99.90;;;;;;6084803;23;20391;-88
2021/10/16 16:34:22;;;;;;;3.47;3.15;;;11.60;99.90;;;;;;6062999;23;20383;-88
2021/10/16 16:37:07;;;;;;;3.95;3.55;;;11.50;99.90;;;;;;6064991;23;20388;-89
2021/10/16 16:39:53;;;;;;;3.42;2.58;;;11.60;99.90;;;;;;6084823;23;20348;-89
2021/10/16 16:42:38;;;;;;;2.53;2.33;;;11.60;99.90;;;;;;6065228;23;20408;-89
2021/10/16 16:45:23;;;;;;;3.53;2.47;;;11.60;99.90;;;;;;6084511;23;20408;-89
2021/10/16 17:05:43;;;;;;;2.70;2.50;;;11.20;99.90;;;;;;6163527;23;20352;-87
2021/10/16 18:00:19;;;;;;;2.47;2.25;;;10.70;99.90;;;;;;6164559;23;20492;-86
2021/10/16 18:03:04;;;;;;;2.30;2.10;;;10.70;99.90;;;;;;6144963;23;20400;-87
2021/10/16 18:05:49;;;;;;;2.47;2.00;;;10.80;99.90;;;;;;6146083;23;20365;-89
2021/10/16 18:08:38;;;;;;;2.20;2.00;;;10.70;99.90;;;;;;6142679;23;20365;-87
2021/10/16 18:14:28;;;;;;;2.60;2.40;;;10.80;99.90;;;;;;6206884;23;20373;-88
2021/10/16 18:17:12;;;;;;;5.03;2.55;;;10.70;99.90;;;;;;6140864;23;20380;-87
